Nautilus — OUYX2 — position and weather

sailwx.info

Track history (hours):
 
Tides and Currents Weather Stations Pressure Air Temp Water Temp Dewpoint Dewpoint Depression Visibility Wind Speed Wind Dir Waves Ship Positions

Nautilus

Last reported at 2016-Jul-27 06:09 UTC. Time now 2016-Jul-27 13:30 UTC.
Position N 59°15' E 021°34'.

Length 120 m; draft 5.3 m.

Type: Ship. MMSI: 219425000.

Date/timePositionNaut miles runAvg speedWind from/ knotsBaromVisibWave heightAir tempDewpointWater temp
2016-Jul-27 06:09N 59°15' E 021°34'812.5
2016-Jul-27 05:32N 59°17' E 021°48'1212.4
2016-Jul-27 04:33N 59°23' E 022°09'1312.3
2016-Jul-27 03:31N 59°31' E 022°29'2412.0
2016-Jul-27 01:33N 59°38' E 023°13'1211.9
2016-Jul-27 00:33N 59°41' E 023°36'1212.0
2016-Jul-26 23:33N 59°44' E 023°59'1211.7
2016-Jul-26 22:33N 59°47' E 024°21'1211.8
2016-Jul-26 21:33N 59°50' E 024°44'1212.4
2016-Jul-26 20:33N 59°52' E 025°08'1412.1
2016-Jul-26 19:25N 59°60' E 025°31'1011.6
2016-Jul-26 18:33N 60°10' E 025°35'11 0.7
2016-Jul-26 03:33N 59°59' E 025°30'8 5.8
2016-Jul-26 02:05N 59°53' E 025°18'5 8.9
2016-Jul-26 01:33N 59°50' E 025°12'8 8.2
2016-Jul-26 00:33N 59°47' E 024°57'1010.0
2016-Jul-25 23:33N 59°45' E 024°37'10 9.6
2016-Jul-25 22:33N 59°43' E 024°19'9 9.3
2016-Jul-25 21:33N 59°40' E 024°01'10 9.6
2016-Jul-25 20:33N 59°36' E 023°43'10 9.7
2016-Jul-25 19:33N 59°33' E 023°25'10 9.8
2016-Jul-25 18:33N 59°30' E 023°07'11 9.7
2016-Jul-25 17:23N 59°27' E 022°46'8 9.9
2016-Jul-25 16:33N 59°23' E 022°31'10 9.8
2016-Jul-25 15:33N 59°24' E 022°12'1212.2
2016-Jul-25 14:33N 59°28' E 021°49'1212.4
2016-Jul-25 13:33N 59°32' E 021°26'1312.4
2016-Jul-25 12:31N 59°36' E 021°02'5011.6
2016-Jul-25 08:14N 59°53' E 019°30'1112.3
2016-Jul-25 07:19N 60°02' E 019°15'1112.3
2016-Jul-25 06:26N 60°11' E 019°01'  
2016-Jul-21 05:33N 56°12' E 019°17'1111.2
2016-Jul-21 04:33N 56°01' E 019°12'1111.2
2016-Jul-21 03:33N 55°50' E 019°07'1111.3
2016-Jul-21 02:33N 55°40' E 019°01'1111.4
2016-Jul-21 01:33N 55°29' E 018°56'1211.8
2016-Jul-21 00:33N 55°17' E 018°56'1211.9
2016-Jul-20 23:33N 55°05' E 018°59'1211.7
2016-Jul-20 22:33N 54°53' E 019°01'1211.7
2016-Jul-20 21:33N 54°42' E 019°05'1110.7
2016-Jul-20 20:33N 54°31' E 019°03'1010.3
2016-Jul-20 19:33N 54°25' E 018°49'3 3.2
2016-Jul-20 18:32N 54°24' E 018°43'0 0.0
2016-Jul-20 17:32N 54°24' E 018°43'0 0.0
2016-Jul-20 16:32N 54°24' E 018°43'0 0.0
2016-Jul-20 15:32N 54°24' E 018°43'0 0.0
2016-Jul-20 14:32N 54°24' E 018°43'0 0.0
2016-Jul-20 13:32N 54°24' E 018°43'0 0.0
2016-Jul-20 12:32N 54°24' E 018°43'0 0.0
2016-Jul-20 11:32N 54°24' E 018°43'0 0.0
2016-Jul-20 10:29N 54°24' E 018°43'0 0.0
2016-Jul-20 09:32N 54°24' E 018°43'0 0.0
2016-Jul-20 08:32N 54°24' E 018°43'0 0.0
2016-Jul-20 07:32N 54°24' E 018°43'0 0.0
2016-Jul-20 06:32N 54°24' E 018°43'0 0.0
2016-Jul-20 05:32N 54°24' E 018°43'0 0.0
2016-Jul-20 04:32N 54°24' E 018°43'0 0.0
2016-Jul-20 03:32N 54°24' E 018°43'0 0.0
2016-Jul-20 02:32N 54°24' E 018°43'0 0.0
2016-Jul-20 01:32N 54°24' E 018°43'0 0.0
2016-Jul-20 00:32N 54°24' E 018°43'0 0.0
2016-Jul-19 23:32N 54°24' E 018°43'0 0.0
2016-Jul-19 22:32N 54°24' E 018°43'0 0.0
2016-Jul-19 21:32N 54°24' E 018°43'0 0.0
2016-Jul-19 20:32N 54°24' E 018°43'0 0.0
2016-Jul-19 19:33N 54°24' E 018°43'4 4.2
2016-Jul-19 18:33N 54°26' E 018°50'2 2.4
2016-Jul-19 17:31N 54°27' E 018°53'0 0.0
2016-Jul-19 16:31N 54°27' E 018°53'0 0.0
2016-Jul-19 15:31N 54°27' E 018°53'0 0.0
2016-Jul-19 14:31N 54°27' E 018°53'4 4.4
2016-Jul-19 13:33N 54°30' E 018°59'10 9.8
2016-Jul-19 12:34N 54°39' E 019°04'1111.0
2016-Jul-19 11:33N 54°50' E 019°01'1111.1
2016-Jul-19 10:34N 55°01' E 018°60'1110.7
2016-Jul-19 09:34N 55°12' E 018°58'1110.5
2016-Jul-19 08:28N 55°23' E 018°57'1010.4
2016-Jul-19 07:33N 55°33' E 018°59'26310.5
2016-Jul-18 06:32N 59°30' E 022°30'1212.8
2016-Jul-18 05:34N 59°33' E 022°54'1212.4
2016-Jul-18 04:34N 59°33' E 023°18'1312.6
2016-Jul-18 03:30N 59°28' E 023°43'14 0.9
2016-Jul-17 12:07N 59°20' E 024°05'1910.6
2016-Jul-17 10:21N 59°27' E 023°31'1512.7
2016-Jul-17 09:13N 59°27' E 023°02'  
Track history (hours):
 
Tides and Currents Weather Stations Pressure Air Temp Water Temp Dewpoint Dewpoint Depression Visibility Wind Speed Wind Dir Waves Ship Positions

Nautilus

Last reported at 2016-Jul-27 06:09 UTC. Time now 2016-Jul-27 13:30 UTC.
Position N 59°15' E 021°34'.

Length 120 m; draft 5.3 m.

Type: Ship. MMSI: 219425000.

Date/timePositionNaut miles runAvg speedWind from/ knotsBaromVisibWave heightAir tempDewpointWater temp
2016-Jul-27 06:09N 59°15' E 021°34'812.5
2016-Jul-27 05:32N 59°17' E 021°48'1212.4
2016-Jul-27 04:33N 59°23' E 022°09'1312.3
2016-Jul-27 03:31N 59°31' E 022°29'2412.0
2016-Jul-27 01:33N 59°38' E 023°13'1211.9
2016-Jul-27 00:33N 59°41' E 023°36'1212.0
2016-Jul-26 23:33N 59°44' E 023°59'1211.7
2016-Jul-26 22:33N 59°47' E 024°21'1211.8
2016-Jul-26 21:33N 59°50' E 024°44'1212.4
2016-Jul-26 20:33N 59°52' E 025°08'1412.1
2016-Jul-26 19:25N 59°60' E 025°31'1011.6
2016-Jul-26 18:33N 60°10' E 025°35'11 0.7
2016-Jul-26 03:33N 59°59' E 025°30'8 5.8
2016-Jul-26 02:05N 59°53' E 025°18'5 8.9
2016-Jul-26 01:33N 59°50' E 025°12'8 8.2
2016-Jul-26 00:33N 59°47' E 024°57'1010.0
2016-Jul-25 23:33N 59°45' E 024°37'10 9.6
2016-Jul-25 22:33N 59°43' E 024°19'9 9.3
2016-Jul-25 21:33N 59°40' E 024°01'10 9.6
2016-Jul-25 20:33N 59°36' E 023°43'10 9.7
2016-Jul-25 19:33N 59°33' E 023°25'10 9.8
2016-Jul-25 18:33N 59°30' E 023°07'11 9.7
2016-Jul-25 17:23N 59°27' E 022°46'8 9.9
2016-Jul-25 16:33N 59°23' E 022°31'10 9.8
2016-Jul-25 15:33N 59°24' E 022°12'1212.2
2016-Jul-25 14:33N 59°28' E 021°49'1212.4
2016-Jul-25 13:33N 59°32' E 021°26'1312.4
2016-Jul-25 12:31N 59°36' E 021°02'5011.6
2016-Jul-25 08:14N 59°53' E 019°30'1112.3
2016-Jul-25 07:19N 60°02' E 019°15'1112.3
2016-Jul-25 06:26N 60°11' E 019°01'  
2016-Jul-21 05:33N 56°12' E 019°17'1111.2
2016-Jul-21 04:33N 56°01' E 019°12'1111.2
2016-Jul-21 03:33N 55°50' E 019°07'1111.3
2016-Jul-21 02:33N 55°40' E 019°01'1111.4
2016-Jul-21 01:33N 55°29' E 018°56'1211.8
2016-Jul-21 00:33N 55°17' E 018°56'1211.9
2016-Jul-20 23:33N 55°05' E 018°59'1211.7
2016-Jul-20 22:33N 54°53' E 019°01'1211.7
2016-Jul-20 21:33N 54°42' E 019°05'1110.7
2016-Jul-20 20:33N 54°31' E 019°03'1010.3
2016-Jul-20 19:33N 54°25' E 018°49'3 3.2
2016-Jul-20 18:32N 54°24' E 018°43'0 0.0
2016-Jul-20 17:32N 54°24' E 018°43'0 0.0
2016-Jul-20 16:32N 54°24' E 018°43'0 0.0
2016-Jul-20 15:32N 54°24' E 018°43'0 0.0
2016-Jul-20 14:32N 54°24' E 018°43'0 0.0
2016-Jul-20 13:32N 54°24' E 018°43'0 0.0
2016-Jul-20 12:32N 54°24' E 018°43'0 0.0
2016-Jul-20 11:32N 54°24' E 018°43'0 0.0
2016-Jul-20 10:29N 54°24' E 018°43'0 0.0
2016-Jul-20 09:32N 54°24' E 018°43'0 0.0
2016-Jul-20 08:32N 54°24' E 018°43'0 0.0
2016-Jul-20 07:32N 54°24' E 018°43'0 0.0
2016-Jul-20 06:32N 54°24' E 018°43'0 0.0
2016-Jul-20 05:32N 54°24' E 018°43'0 0.0
2016-Jul-20 04:32N 54°24' E 018°43'0 0.0
2016-Jul-20 03:32N 54°24' E 018°43'0 0.0
2016-Jul-20 02:32N 54°24' E 018°43'0 0.0
2016-Jul-20 01:32N 54°24' E 018°43'0 0.0
2016-Jul-20 00:32N 54°24' E 018°43'0 0.0
2016-Jul-19 23:32N 54°24' E 018°43'0 0.0
2016-Jul-19 22:32N 54°24' E 018°43'0 0.0
2016-Jul-19 21:32N 54°24' E 018°43'0 0.0
2016-Jul-19 20:32N 54°24' E 018°43'0 0.0
2016-Jul-19 19:33N 54°24' E 018°43'4 4.2
2016-Jul-19 18:33N 54°26' E 018°50'2 2.4
2016-Jul-19 17:31N 54°27' E 018°53'0 0.0
2016-Jul-19 16:31N 54°27' E 018°53'0 0.0
2016-Jul-19 15:31N 54°27' E 018°53'0 0.0
2016-Jul-19 14:31N 54°27' E 018°53'4 4.4
2016-Jul-19 13:33N 54°30' E 018°59'10 9.8
2016-Jul-19 12:34N 54°39' E 019°04'1111.0
2016-Jul-19 11:33N 54°50' E 019°01'1111.1
2016-Jul-19 10:34N 55°01' E 018°60'1110.7
2016-Jul-19 09:34N 55°12' E 018°58'1110.5
2016-Jul-19 08:28N 55°23' E 018°57'1010.4
2016-Jul-19 07:33N 55°33' E 018°59'26310.5
2016-Jul-18 06:32N 59°30' E 022°30'1212.8
2016-Jul-18 05:34N 59°33' E 022°54'1212.4
2016-Jul-18 04:34N 59°33' E 023°18'1312.6
2016-Jul-18 03:30N 59°28' E 023°43'14 0.9
2016-Jul-17 12:07N 59°20' E 024°05'1910.6
2016-Jul-17 10:21N 59°27' E 023°31'1512.7
2016-Jul-17 09:13N 59°27' E 023°02'  

Dump ship's entire track history